Time;durP1;ratioP1;P1;durP2;ratioP2;P2;SDS_P1;SDS_P2;PMS_P1;PMS_P2;Temp;Humidity;BMP_temperature;BMP_pressure;BME280_temperature;BME280_humidity;BME280_pressure;Samples;Min_cycle;Max_cycle;Signal;HPM_P1;HPM_P2
2023/05/16 00:00:25;;;;;;;;;;;;;;;;;;5132148;27;19999;-68
2023/05/16 00:02:50;;;;;;;;;;;;;;;;;;5131347;27;19951;-68
2023/05/16 00:05:17;;;;;;;;;;;;;;;;;;5131657;28;19946;-68
2023/05/16 00:07:43;;;;;;;;;;;;;;;;;;5131654;28;19918;-68
2023/05/16 00:13:12;;;;;;;;;;;;;;;;;;5111591;27;19916;-68
2023/05/16 00:17:10;;;;;;;;;;;;;;;;;;5111546;27;19915;-68
2023/05/16 00:21:35;;;;;;;;;;;;;;;;;;5111539;27;19922;-69
2023/05/16 00:24:33;;;;;;;;;;;;;;;;;;5090998;27;19922;-68
2023/05/16 00:27:53;;;;;;;;;;;;;;;;;;5111783;27;19916;-69
2023/05/16 00:30:19;;;;;;;;;;;;;;;;;;5111367;28;20015;-69
2023/05/16 00:34:25;;;;;;;;;;;;;;;;;;5173496;27;19964;-68
2023/05/16 00:40:49;;;;;;;;;;;;;;;;;;5091063;27;19923;-69
2023/05/16 00:45:26;;;;;;;;;;;;;;;;;;5111377;27;20296;-69
2023/05/16 00:49:59;;;;;;;;;;;;;;;;;;5090948;28;19917;-68
2023/05/16 00:53:40;;;;;;;;;;;;;;;;;;5111084;27;19912;-68
2023/05/16 00:56:37;;;;;;;;;;;;;;;;;;5111720;27;19912;-68
2023/05/16 00:59:04;;;;;;;;;;;;;;;;;;5111322;28;20007;-69
2023/05/16 01:07:30;;;;;;;;;;;;;;;;;;5090827;27;19935;-68
2023/05/16 01:11:25;;;;;;;;;;;;;;;;;;5173717;27;19918;-69
2023/05/16 01:14:05;;;;;;;;;;;;;;;;;;5090630;27;19922;-68
2023/05/16 01:16:31;;;;;;;;;;;;;;;;;;5090805;28;20007;-68
2023/05/16 01:18:57;;;;;;;;;;;;;;;;;;5090719;28;19954;-68
2023/05/16 01:21:24;;;;;;;;;;;;;;;;;;5090399;28;19915;-68
2023/05/16 01:23:50;;;;;;;;;;;;;;;;;;5090718;28;20368;-68
2023/05/16 01:28:15;;;;;;;;;;;;;;;;;;5152164;27;20431;-69
2023/05/16 01:30:41;;;;;;;;;;;;;;;;;;5134126;27;20317;-69
2023/05/16 01:33:06;;;;;;;;;;;;;;;;;;5152572;27;19907;-69
2023/05/16 01:36:27;;;;;;;;;;;;;;;;;;5090469;27;19916;-68
2023/05/16 01:38:53;;;;;;;;;;;;;;;;;;5091112;28;19918;-68
2023/05/16 01:41:20;;;;;;;;;;;;;;;;;;5090464;28;19912;-68
2023/05/16 01:43:46;;;;;;;;;;;;;;;;;;5090759;28;19909;-68
2023/05/16 01:46:12;;;;;;;;;;;;;;;;;;5090818;28;19915;-68
2023/05/16 01:48:38;;;;;;;;;;;;;;;;;;5090270;28;19916;-68
2023/05/16 01:51:56;;;;;;;;;;;;;;;;;;5091373;28;19916;-68
2023/05/16 01:57:07;;;;;;;;;;;;;;;;;;5090733;28;19922;-68
2023/05/16 02:02:21;;;;;;;;;;;;;;;;;;5091485;27;19923;-68
2023/05/16 02:05:11;;;;;;;;;;;;;;;;;;5090997;27;19913;-68
2023/05/16 02:08:52;;;;;;;;;;;;;;;;;;5173746;27;19957;-69
2023/05/16 02:11:18;;;;;;;;;;;;;;;;;;5172952;27;19915;-69
2023/05/16 02:13:44;;;;;;;;;;;;;;;;;;5173167;27;19907;-69
2023/05/16 02:16:10;;;;;;;;;;;;;;;;;;5173034;27;19907;-69
2023/05/16 02:18:36;;;;;;;;;;;;;;;;;;5172740;27;19917;-69
2023/05/16 02:22:33;;;;;;;;;;;;;;;;;;5091209;28;19923;-68
2023/05/16 02:24:59;;;;;;;;;;;;;;;;;;5090362;28;20002;-69
2023/05/16 02:28:34;;;;;;;;;;;;;;;;;;5111490;27;19942;-69
2023/05/16 02:36:52;;;;;;;;;;;;;;;;;;5173466;27;19915;-69
2023/05/16 02:39:18;;;;;;;;;;;;;;;;;;5172837;27;20397;-69
2023/05/16 02:41:44;;;;;;;;;;;;;;;;;;5173209;27;19942;-68
2023/05/16 02:45:44;;;;;;;;;;;;;;;;;;5090805;28;19913;-68
2023/05/16 02:51:47;;;;;;;;;;;;;;;;;;5110912;27;19922;-68
2023/05/16 02:54:13;;;;;;;;;;;;;;;;;;5111464;28;20347;-68
2023/05/16 02:58:09;;;;;;;;;;;;;;;;;;5111710;27;20287;-68
2023/05/16 03:00:35;;;;;;;;;;;;;;;;;;5109860;28;20318;-68
2023/05/16 03:03:01;;;;;;;;;;;;;;;;;;5111477;28;19908;-68
2023/05/16 03:06:08;;;;;;;;;;;;;;;;;;5070415;28;20299;-68
2023/05/16 03:08:34;;;;;;;;;;;;;;;;;;5070708;28;19995;-69
2023/05/16 03:11:00;;;;;;;;;;;;;;;;;;5070616;28;19970;-68
2023/05/16 03:13:54;;;;;;;;;;;;;;;;;;5111048;27;20295;-68
2023/05/16 03:18:24;;;;;;;;;;;;;;;;;;5091369;27;19923;-68
2023/05/16 03:20:51;;;;;;;;;;;;;;;;;;5090457;28;20003;-68
2023/05/16 03:24:57;;;;;;;;;;;;;;;;;;5111690;27;19918;-68
2023/05/16 03:27:23;;;;;;;;;;;;;;;;;;5110886;28;19912;-69
2023/05/16 03:34:25;;;;;;;;;;;;;;;;;;5090930;27;19916;-69
2023/05/16 03:38:38;;;;;;;;;;;;;;;;;;5091409;27;19939;-68
2023/05/16 03:41:34;;;;;;;;;;;;;;;;;;5090462;27;19918;-68
2023/05/16 03:44:00;;;;;;;;;;;;;;;;;;5090843;28;19913;-68
2023/05/16 03:48:43;;;;;;;;;;;;;;;;;;5090969;27;19924;-68
2023/05/16 03:51:09;;;;;;;;;;;;;;;;;;5090844;28;19912;-69
2023/05/16 03:53:35;;;;;;;;;;;;;;;;;;5090716;28;19916;-68
2023/05/16 03:56:01;;;;;;;;;;;;;;;;;;5090258;28;19908;-69
2023/05/16 03:59:40;;;;;;;;;;;;;;;;;;5091003;27;19923;-68
2023/05/16 04:02:06;;;;;;;;;;;;;;;;;;5088873;28;20331;-68
2023/05/16 04:04:32;;;;;;;;;;;;;;;;;;5089143;28;19966;-68
2023/05/16 04:06:58;;;;;;;;;;;;;;;;;;5090714;28;19908;-69
2023/05/16 04:09:24;;;;;;;;;;;;;;;;;;5090256;28;19909;-69
2023/05/16 04:11:50;;;;;;;;;;;;;;;;;;5090978;28;19965;-69
2023/05/16 04:14:28;;;;;;;;;;;;;;;;;;5090965;27;19935;-68
2023/05/16 04:20:08;;;;;;;;;;;;;;;;;;5111265;27;19912;-69
2023/05/16 04:22:34;;;;;;;;;;;;;;;;;;5111484;28;20459;-68
2023/05/16 04:25:00;;;;;;;;;;;;;;;;;;5110767;28;20330;-68
2023/05/16 04:27:26;;;;;;;;;;;;;;;;;;5111000;28;20315;-68
2023/05/16 04:29:52;;;;;;;;;;;;;;;;;;5111114;28;20342;-68
2023/05/16 04:40:13;;;;;;;;;;;;;;;;;;5111808;27;20375;-68
2023/05/16 04:42:39;;;;;;;;;;;;;;;;;;5111161;28;19912;-68
2023/05/16 04:45:05;;;;;;;;;;;;;;;;;;5110812;28;19912;-69
2023/05/16 04:52:58;;;;;;;;;;;;;;;;;;5090655;27;19922;-69
2023/05/16 04:55:24;;;;;;;;;;;;;;;;;;5090970;28;20003;-69
2023/05/16 04:57:50;;;;;;;;;;;;;;;;;;5089408;28;19909;-69
2023/05/16 05:00:16;;;;;;;;;;;;;;;;;;5090266;28;19914;-69
2023/05/16 05:05:47;;;;;;;;;;;;;;;;;;5090310;27;20280;-68
2023/05/16 05:09:56;;;;;;;;;;;;;;;;;;5091471;28;19923;-69
2023/05/16 05:12:22;;;;;;;;;;;;;;;;;;5089468;28;20010;-68
2023/05/16 05:14:48;;;;;;;;;;;;;;;;;;5090768;28;19908;-68
2023/05/16 05:17:29;;;;;;;;;;;;;;;;;;5087773;27;20425;-67
2023/05/16 05:22:01;;;;;;;;;;;;;;;;;;5090780;27;19923;-67
2023/05/16 05:26:03;;;;;;;;;;;;;;;;;;5111013;27;19916;-66
2023/05/16 05:28:28;;;;;;;;;;;;;;;;;;5104834;28;20114;-67
2023/05/16 05:33:29;;;;;;;;;;;;;;;;;;5171712;27;19922;-66
2023/05/16 05:37:27;;;;;;;;;;;;;;;;;;5088105;28;19927;-66
2023/05/16 05:39:54;;;;;;;;;;;;;;;;;;5088037;28;19946;-65
2023/05/16 05:42:20;;;;;;;;;;;;;;;;;;5086096;28;20391;-66
2023/05/16 05:46:03;;;;;;;;;;;;;;;;;;5108063;27;19927;-65
2023/05/16 05:48:28;;;;;;;;;;;;;;;;;;5106723;28;19939;-65
2023/05/16 05:50:54;;;;;;;;;;;;;;;;;;5104718;28;19973;-65
2023/05/16 05:53:45;;;;;;;;;;;;;;;;;;5085181;28;20453;-65
2023/05/16 05:56:11;;;;;;;;;;;;;;;;;;5080831;28;19913;-67
2023/05/16 06:03:47;;;;;;;;;;;;;;;;;;5138440;27;19916;-66
2023/05/16 06:06:14;;;;;;;;;;;;;;;;;;5139706;27;19999;-65
2023/05/16 06:08:40;;;;;;;;;;;;;;;;;;5118491;27;20021;-66
2023/05/16 06:12:08;;;;;;;;;;;;;;;;;;5088323;27;19919;-66
2023/05/16 06:14:55;;;;;;;;;;;;;;;;;;5068586;28;19924;-65
2023/05/16 06:17:20;;;;;;;;;;;;;;;;;;5059645;28;19913;-65
2023/05/16 06:27:23;;;;;;;;;;;;;;;;;;5110473;27;19920;-68
2023/05/16 06:29:49;;;;;;;;;;;;;;;;;;5109973;28;19919;-68
2023/05/16 06:32:15;;;;;;;;;;;;;;;;;;5099737;28;19913;-68
2023/05/16 06:34:41;;;;;;;;;;;;;;;;;;5087134;28;19966;-69
2023/05/16 06:37:26;;;;;;;;;;;;;;;;;;5109875;27;19913;-67
2023/05/16 06:39:52;;;;;;;;;;;;;;;;;;5106303;28;19998;-67
2023/05/16 06:42:48;;;;;;;;;;;;;;;;;;5109458;27;19920;-67
2023/05/16 06:45:15;;;;;;;;;;;;;;;;;;5109748;28;19912;-65
2023/05/16 06:47:41;;;;;;;;;;;;;;;;;;5109239;28;19922;-65
2023/05/16 06:52:44;;;;;;;;;;;;;;;;;;5088627;27;19916;-64
2023/05/16 06:55:11;;;;;;;;;;;;;;;;;;5066944;28;20027;-65
2023/05/16 06:57:37;;;;;;;;;;;;;;;;;;5069006;28;19916;-65
2023/05/16 07:00:03;;;;;;;;;;;;;;;;;;5086451;28;20312;-65
2023/05/16 07:05:06;;;;;;;;;;;;;;;;;;5102005;27;19931;-65
2023/05/16 07:07:32;;;;;;;;;;;;;;;;;;5089909;28;19959;-64
2023/05/16 07:11:10;;;;;;;;;;;;;;;;;;5084668;27;19922;-63
2023/05/16 07:13:36;;;;;;;;;;;;;;;;;;5083177;28;19916;-65
2023/05/16 07:16:02;;;;;;;;;;;;;;;;;;5082594;28;19998;-64
2023/05/16 07:18:28;;;;;;;;;;;;;;;;;;5082265;28;20021;-65
2023/05/16 07:20:54;;;;;;;;;;;;;;;;;;5083367;28;19966;-65
2023/05/16 07:23:21;;;;;;;;;;;;;;;;;;5081038;28;19948;-64
2023/05/16 07:25:47;;;;;;;;;;;;;;;;;;5087236;28;19912;-64
2023/05/16 07:29:03;;;;;;;;;;;;;;;;;;5133095;27;19922;-66
2023/05/16 07:31:30;;;;;;;;;;;;;;;;;;5117988;28;19916;-65
2023/05/16 07:34:18;;;;;;;;;;;;;;;;;;5124741;27;19962;-65
2023/05/16 07:36:45;;;;;;;;;;;;;;;;;;5093902;28;20283;-65
2023/05/16 07:39:11;;;;;;;;;;;;;;;;;;5097574;28;19924;-66
2023/05/16 07:41:37;;;;;;;;;;;;;;;;;;5093082;28;19934;-66
2023/05/16 07:44:03;;;;;;;;;;;;;;;;;;5088883;28;19916;-65
2023/05/16 07:46:29;;;;;;;;;;;;;;;;;;5091836;28;19912;-66
2023/05/16 07:48:54;;;;;;;;;;;;;;;;;;5094434;28;19916;-64
2023/05/16 07:51:21;;;;;;;;;;;;;;;;;;5072777;28;20006;-64
2023/05/16 07:56:17;;;;;;;;;;;;;;;;;;5086170;27;19927;-66
2023/05/16 07:58:43;;;;;;;;;;;;;;;;;;5086483;28;19916;-64
2023/05/16 08:01:09;;;;;;;;;;;;;;;;;;5066924;28;19958;-65
2023/05/16 08:03:36;;;;;;;;;;;;;;;;;;5067945;28;19908;-66
2023/05/16 08:08:29;;;;;;;;;;;;;;;;;;5089396;27;19918;-66
2023/05/16 08:12:41;;;;;;;;;;;;;;;;;;5106053;27;19931;-66
2023/05/16 08:17:45;;;;;;;;;;;;;;;;;;5107531;27;19916;-64
2023/05/16 08:21:30;;;;;;;;;;;;;;;;;;5048082;28;19913;-66
2023/05/16 08:23:56;;;;;;;;;;;;;;;;;;5047121;28;19921;-66
2023/05/16 08:26:22;;;;;;;;;;;;;;;;;;5041740;28;19913;-65
2023/05/16 08:30:31;;;;;;;;;;;;;;;;;;5106650;27;19915;-64
2023/05/16 08:32:57;;;;;;;;;;;;;;;;;;5093087;28;20435;-65
2023/05/16 08:36:39;;;;;;;;;;;;;;;;;;5086859;27;19920;-63
2023/05/16 08:39:06;;;;;;;;;;;;;;;;;;5067821;28;20341;-64
2023/05/16 08:42:15;;;;;;;;;;;;;;;;;;5135884;27;19930;-64
2023/05/16 08:44:41;;;;;;;;;;;;;;;;;;5123057;27;19958;-65
2023/05/16 08:47:08;;;;;;;;;;;;;;;;;;5121384;28;19912;-67
2023/05/16 08:55:26;;;;;;;;;;;;;;;;;;5112589;27;19924;-66
2023/05/16 08:57:51;;;;;;;;;;;;;;;;;;5112392;27;19955;-64
2023/05/16 09:00:18;;;;;;;;;;;;;;;;;;5109969;28;20011;-65
2023/05/16 09:02:44;;;;;;;;;;;;;;;;;;5108516;28;19916;-65
2023/05/16 09:05:10;;;;;;;;;;;;;;;;;;5104169;28;19924;-65
2023/05/16 09:11:28;;;;;;;;;;;;;;;;;;5137844;27;20410;-67
2023/05/16 09:13:54;;;;;;;;;;;;;;;;;;5124028;28;19998;-66
2023/05/16 09:21:36;;;;;;;;;;;;;;;;;;5077143;28;19925;-66
2023/05/16 09:24:03;;;;;;;;;;;;;;;;;;5053652;28;19913;-65
2023/05/16 09:29:24;;;;;;;;;;;;;;;;;;5087685;27;19921;-65
2023/05/16 09:31:49;;;;;;;;;;;;;;;;;;5090540;28;19919;-65
2023/05/16 09:34:15;;;;;;;;;;;;;;;;;;5086737;28;20356;-65
2023/05/16 09:36:41;;;;;;;;;;;;;;;;;;5084314;28;20359;-66
2023/05/16 09:39:07;;;;;;;;;;;;;;;;;;5091848;28;20065;-64
2023/05/16 09:41:36;;;;;;;;;;;;;;;;;;5091986;28;19916;-66
2023/05/16 09:45:08;;;;;;;;;;;;;;;;;;5107566;27;19922;-66
2023/05/16 09:51:36;;;;;;;;;;;;;;;;;;5088621;28;19934;-64
2023/05/16 09:54:02;;;;;;;;;;;;;;;;;;5087591;28;19919;-64
2023/05/16 09:56:29;;;;;;;;;;;;;;;;;;5090860;28;20368;-64
2023/05/16 09:58:55;;;;;;;;;;;;;;;;;;5087052;28;19916;-65
2023/05/16 10:01:21;;;;;;;;;;;;;;;;;;5088881;28;19912;-64
2023/05/16 10:03:47;;;;;;;;;;;;;;;;;;5085260;28;19916;-64
2023/05/16 10:09:30;;;;;;;;;;;;;;;;;;5136821;27;19946;-67
2023/05/16 10:11:56;;;;;;;;;;;;;;;;;;5128688;28;19931;-66
2023/05/16 10:14:22;;;;;;;;;;;;;;;;;;5127302;28;19965;-67
2023/05/16 10:16:48;;;;;;;;;;;;;;;;;;5127508;28;19907;-68
2023/05/16 10:19:36;;;;;;;;;;;;;;;;;;5105753;27;19924;-66
2023/05/16 10:22:02;;;;;;;;;;;;;;;;;;5117330;28;19912;-67
2023/05/16 10:24:28;;;;;;;;;;;;;;;;;;5107850;27;19916;-65
2023/05/16 10:30:57;;;;;;;;;;;;;;;;;;5102722;27;19916;-66
2023/05/16 10:33:23;;;;;;;;;;;;;;;;;;5107208;28;20383;-66
2023/05/16 10:35:49;;;;;;;;;;;;;;;;;;5109430;28;19912;-66
2023/05/16 10:40:00;;;;;;;;;;;;;;;;;;5083972;27;19926;-65
2023/05/16 10:42:26;;;;;;;;;;;;;;;;;;5084951;28;19916;-67
2023/05/16 10:44:55;;;;;;;;;;;;;;;;;;5084033;28;20748;-68
2023/05/16 10:47:21;;;;;;;;;;;;;;;;;;5083847;28;19912;-67
2023/05/16 10:50:55;;;;;;;;;;;;;;;;;;5072302;28;19924;-65
2023/05/16 10:54:13;;;;;;;;;;;;;;;;;;5088915;28;19929;-65
2023/05/16 10:57:44;;;;;;;;;;;;;;;;;;5091158;28;20399;-64
2023/05/16 11:01:14;;;;;;;;;;;;;;;;;;5087759;28;19917;-65
2023/05/16 11:06:52;;;;;;;;;;;;;;;;;;5111829;27;19923;-67
2023/05/16 11:13:37;;;;;;;;;;;;;;;;;;5109208;27;20636;-65
2023/05/16 11:16:03;;;;;;;;;;;;;;;;;;5116459;28;19915;-66
2023/05/16 11:20:04;;;;;;;;;;;;;;;;;;5107718;27;19920;-65
2023/05/16 11:22:30;;;;;;;;;;;;;;;;;;5116307;28;19953;-65
2023/05/16 11:26:54;;;;;;;;;;;;;;;;;;5146037;27;20431;-66
2023/05/16 11:32:29;;;;;;;;;;;;;;;;;;5109676;27;19939;-66
2023/05/16 11:34:55;;;;;;;;;;;;;;;;;;5099217;28;19917;-67
2023/05/16 11:39:35;;;;;;;;;;;;;;;;;;5089991;28;19922;-66
2023/05/16 11:45:24;;;;;;;;;;;;;;;;;;5152032;27;19919;-66
2023/05/16 11:49:29;;;;;;;;;;;;;;;;;;5120853;27;19916;-66
2023/05/16 11:51:56;;;;;;;;;;;;;;;;;;5117947;28;20256;-67
2023/05/16 11:55:00;;;;;;;;;;;;;;;;;;5110331;27;19920;-66
2023/05/16 11:57:27;;;;;;;;;;;;;;;;;;5110039;28;19985;-67
2023/05/16 11:59:53;;;;;;;;;;;;;;;;;;5109461;28;19933;-66
2023/05/16 12:02:19;;;;;;;;;;;;;;;;;;5109082;28;19908;-66
2023/05/16 12:05:31;;;;;;;;;;;;;;;;;;5088926;27;19919;-66
2023/05/16 12:09:32;;;;;;;;;;;;;;;;;;5086629;27;19913;-65
2023/05/16 12:11:58;;;;;;;;;;;;;;;;;;5087381;28;20402;-64
2023/05/16 12:14:39;;;;;;;;;;;;;;;;;;5053361;27;2086307;-64
2023/05/16 12:17:47;;;;;;;;;;;;;;;;;;5134205;27;20030;-64
2023/05/16 12:20:15;;;;;;;;;;;;;;;;;;5129642;28;19912;-66
2023/05/16 12:22:41;;;;;;;;;;;;;;;;;;5129744;28;19947;-65
2023/05/16 12:25:07;;;;;;;;;;;;;;;;;;5130498;28;19949;-67
2023/05/16 12:29:44;;;;;;;;;;;;;;;;;;5149085;27;20369;-65
2023/05/16 12:32:10;;;;;;;;;;;;;;;;;;5126138;27;20006;-67
2023/05/16 12:34:36;;;;;;;;;;;;;;;;;;5109615;28;20280;-67
2023/05/16 12:37:02;;;;;;;;;;;;;;;;;;5128145;28;20383;-66
2023/05/16 12:39:28;;;;;;;;;;;;;;;;;;5125265;28;19918;-65
2023/05/16 12:41:54;;;;;;;;;;;;;;;;;;5130160;28;20006;-66
2023/05/16 12:44:34;;;;;;;;;;;;;;;;;;5171481;27;20002;-66
2023/05/16 12:47:50;;;;;;;;;;;;;;;;;;5090249;27;20254;-68
2023/05/16 12:50:18;;;;;;;;;;;;;;;;;;5070115;28;19920;-64
2023/05/16 12:54:04;;;;;;;;;;;;;;;;;;5086977;27;19913;-65
2023/05/16 12:56:30;;;;;;;;;;;;;;;;;;5084874;28;19987;-66
2023/05/16 12:58:56;;;;;;;;;;;;;;;;;;5086945;28;19919;-70
2023/05/16 13:01:22;;;;;;;;;;;;;;;;;;5088370;28;19908;-69
2023/05/16 13:03:48;;;;;;;;;;;;;;;;;;5087980;28;20003;-69
2023/05/16 13:08:06;;;;;;;;;;;;;;;;;;5108901;27;20314;-70
2023/05/16 13:15:48;;;;;;;;;;;;;;;;;;5089144;28;19916;-68
2023/05/16 13:20:33;;;;;;;;;;;;;;;;;;5090121;27;20321;-70
2023/05/16 13:22:59;;;;;;;;;;;;;;;;;;5090673;28;19912;-70
2023/05/16 13:25:58;;;;;;;;;;;;;;;;;;5111077;27;20302;-68
2023/05/16 13:30:33;;;;;;;;;;;;;;;;;;5070837;28;19917;-68
2023/05/16 13:33:00;;;;;;;;;;;;;;;;;;5070302;28;20436;-68
2023/05/16 13:35:26;;;;;;;;;;;;;;;;;;5070748;28;19915;-68
2023/05/16 13:37:51;;;;;;;;;;;;;;;;;;5070622;28;19999;-68
2023/05/16 13:40:17;;;;;;;;;;;;;;;;;;5070251;28;19909;-68
2023/05/16 13:42:43;;;;;;;;;;;;;;;;;;5070452;28;19912;-68
2023/05/16 13:45:10;;;;;;;;;;;;;;;;;;5070466;28;20289;-68
2023/05/16 13:47:36;;;;;;;;;;;;;;;;;;5070025;28;19909;-68
2023/05/16 13:50:05;;;;;;;;;;;;;;;;;;5070287;28;20038;-69
2023/05/16 13:53:14;;;;;;;;;;;;;;;;;;5091226;28;19923;-69
2023/05/16 13:59:56;;;;;;;;;;;;;;;;;;5143950;27;19926;-68
2023/05/16 14:02:24;;;;;;;;;;;;;;;;;;5131741;28;19947;-68
2023/05/16 14:06:22;;;;;;;;;;;;;;;;;;5111341;27;20307;-68
2023/05/16 14:11:21;;;;;;;;;;;;;;;;;;5089960;27;19927;-69
2023/05/16 14:13:48;;;;;;;;;;;;;;;;;;5091192;28;19920;-69
2023/05/16 14:18:21;;;;;;;;;;;;;;;;;;5111591;27;20304;-69
2023/05/16 14:23:41;;;;;;;;;;;;;;;;;;5110379;27;19916;-68
2023/05/16 14:26:07;;;;;;;;;;;;;;;;;;5109975;28;19912;-68
2023/05/16 14:29:07;;;;;;;;;;;;;;;;;;5088968;27;19923;-69
2023/05/16 14:32:23;;;;;;;;;;;;;;;;;;5089056;28;19912;-68
2023/05/16 14:34:49;;;;;;;;;;;;;;;;;;5089289;28;20292;-68
2023/05/16 14:37:17;;;;;;;;;;;;;;;;;;5087794;28;20261;-68
2023/05/16 14:40:17;;;;;;;;;;;;;;;;;;5091400;27;19923;-68
2023/05/16 14:44:40;;;;;;;;;;;;;;;;;;5123982;27;20003;-68
2023/05/16 14:47:06;;;;;;;;;;;;;;;;;;5111789;28;20336;-69
2023/05/16 14:50:29;;;;;;;;;;;;;;;;;;5063958;28;19921;-68
2023/05/16 14:53:18;;;;;;;;;;;;;;;;;;5092144;27;19919;-68
2023/05/16 14:55:43;;;;;;;;;;;;;;;;;;5090193;28;19962;-68
2023/05/16 14:59:33;;;;;;;;;;;;;;;;;;5112315;27;20302;-68
2023/05/16 15:03:33;;;;;;;;;;;;;;;;;;5102108;27;19917;-68
2023/05/16 15:05:59;;;;;;;;;;;;;;;;;;5091386;28;19913;-68
2023/05/16 15:09:30;;;;;;;;;;;;;;;;;;5087434;27;20281;-68
2023/05/16 15:12:57;;;;;;;;;;;;;;;;;;5111672;27;20299;-68
2023/05/16 15:15:22;;;;;;;;;;;;;;;;;;5103425;28;19919;-67
2023/05/16 15:20:06;;;;;;;;;;;;;;;;;;5091852;27;19922;-68
2023/05/16 15:22:32;;;;;;;;;;;;;;;;;;5083906;28;19912;-68
2023/05/16 15:26:17;;;;;;;;;;;;;;;;;;5085216;27;20319;-67
2023/05/16 15:30:41;;;;;;;;;;;;;;;;;;5132262;27;20014;-68
2023/05/16 15:33:07;;;;;;;;;;;;;;;;;;5131300;28;19912;-69
2023/05/16 15:38:52;;;;;;;;;;;;;;;;;;5109694;27;19916;-68
2023/05/16 15:42:53;;;;;;;;;;;;;;;;;;5150689;27;19967;-67
2023/05/16 15:47:55;;;;;;;;;;;;;;;;;;5089493;28;19913;-70
2023/05/16 15:50:21;;;;;;;;;;;;;;;;;;5088075;28;19919;-70
2023/05/16 15:52:47;;;;;;;;;;;;;;;;;;5088809;28;19908;-68
2023/05/16 15:58:50;;;;;;;;;;;;;;;;;;5110206;27;19912;-68
2023/05/16 16:01:16;;;;;;;;;;;;;;;;;;5107891;28;19918;-68
2023/05/16 16:03:42;;;;;;;;;;;;;;;;;;5109503;28;19924;-70
2023/05/16 16:06:08;;;;;;;;;;;;;;;;;;5111374;28;19962;-70
2023/05/16 16:09:03;;;;;;;;;;;;;;;;;;5112294;27;19912;-68
2023/05/16 16:12:38;;;;;;;;;;;;;;;;;;5123515;27;19920;-67
2023/05/16 16:15:05;;;;;;;;;;;;;;;;;;5109803;28;19965;-70
2023/05/16 16:17:57;;;;;;;;;;;;;;;;;;5151564;27;19916;-70
2023/05/16 16:22:20;;;;;;;;;;;;;;;;;;5111422;27;19916;-69
2023/05/16 16:24:46;;;;;;;;;;;;;;;;;;5111769;28;19934;-68
2023/05/16 16:27:12;;;;;;;;;;;;;;;;;;5111496;28;19912;-69
2023/05/16 16:34:50;;;;;;;;;;;;;;;;;;5150261;27;19916;-68
2023/05/16 16:37:16;;;;;;;;;;;;;;;;;;5132438;27;19947;-67
2023/05/16 16:40:46;;;;;;;;;;;;;;;;;;5110559;27;19916;-69
2023/05/16 16:44:08;;;;;;;;;;;;;;;;;;5090627;27;19916;-68
2023/05/16 16:46:34;;;;;;;;;;;;;;;;;;5091316;28;20011;-68
2023/05/16 16:49:00;;;;;;;;;;;;;;;;;;5090964;28;20013;-68
2023/05/16 16:52:04;;;;;;;;;;;;;;;;;;5111971;27;19915;-68
2023/05/16 16:55:33;;;;;;;;;;;;;;;;;;5091437;27;19922;-69
2023/05/16 16:59:45;;;;;;;;;;;;;;;;;;5111790;27;19916;-68
2023/05/16 17:02:12;;;;;;;;;;;;;;;;;;5111965;28;20372;-68
2023/05/16 17:06:05;;;;;;;;;;;;;;;;;;5112331;27;19916;-68
2023/05/16 17:08:31;;;;;;;;;;;;;;;;;;5111896;28;20016;-68
2023/05/16 17:10:58;;;;;;;;;;;;;;;;;;5111307;28;19953;-68
2023/05/16 17:13:32;;;;;;;;;;;;;;;;;;5111638;28;20425;-68
2023/05/16 17:15:58;;;;;;;;;;;;;;;;;;5111675;28;19908;-68
2023/05/16 17:21:38;;;;;;;;;;;;;;;;;;5112040;27;20295;-68
2023/05/16 17:24:04;;;;;;;;;;;;;;;;;;5111704;28;20451;-68
2023/05/16 17:28:42;;;;;;;;;;;;;;;;;;5152490;27;20010;-67
2023/05/16 17:39:01;;;;;;;;;;;;;;;;;;5091200;27;19919;-67
2023/05/16 17:41:27;;;;;;;;;;;;;;;;;;5091512;28;20006;-67
2023/05/16 17:44:27;;;;;;;;;;;;;;;;;;5111794;27;20261;-67
2023/05/16 17:46:53;;;;;;;;;;;;;;;;;;5111231;28;20287;-68
2023/05/16 17:50:32;;;;;;;;;;;;;;;;;;5091277;28;19912;-69
2023/05/16 17:53:57;;;;;;;;;;;;;;;;;;5091297;27;19916;-67
2023/05/16 18:00:10;;;;;;;;;;;;;;;;;;5091081;28;19922;-67
2023/05/16 18:02:36;;;;;;;;;;;;;;;;;;5091342;28;20275;-67
2023/05/16 18:05:02;;;;;;;;;;;;;;;;;;5091117;28;19922;-69
2023/05/16 18:09:13;;;;;;;;;;;;;;;;;;5111834;27;19918;-68
2023/05/16 18:16:19;;;;;;;;;;;;;;;;;;5100508;27;2080830;-67
2023/05/16 18:20:54;;;;;;;;;;;;;;;;;;5090936;27;20288;-70
2023/05/16 18:23:20;;;;;;;;;;;;;;;;;;5091239;28;19916;-67
2023/05/16 18:25:46;;;;;;;;;;;;;;;;;;5089809;28;20331;-68
2023/05/16 18:28:12;;;;;;;;;;;;;;;;;;5090788;28;19952;-67
2023/05/16 18:30:38;;;;;;;;;;;;;;;;;;5091066;28;19909;-68
2023/05/16 18:33:05;;;;;;;;;;;;;;;;;;5091024;28;20296;-68
2023/05/16 18:36:13;;;;;;;;;;;;;;;;;;5090891;27;19912;-68
2023/05/16 18:38:39;;;;;;;;;;;;;;;;;;5091986;28;19913;-67
2023/05/16 18:44:31;;;;;;;;;;;;;;;;;;5092016;27;19923;-68
2023/05/16 18:48:32;;;;;;;;;;;;;;;;;;5112007;27;19916;-68
2023/05/16 18:53:32;;;;;;;;;;;;;;;;;;5071903;28;20383;-68
2023/05/16 18:55:58;;;;;;;;;;;;;;;;;;5070725;28;19913;-68
2023/05/16 18:58:24;;;;;;;;;;;;;;;;;;5070999;28;20436;-68
2023/05/16 19:00:50;;;;;;;;;;;;;;;;;;5070984;28;19913;-68
2023/05/16 19:03:16;;;;;;;;;;;;;;;;;;5070846;28;19909;-68
2023/05/16 19:07:05;;;;;;;;;;;;;;;;;;5152956;27;19917;-68
2023/05/16 19:11:22;;;;;;;;;;;;;;;;;;5152652;27;20018;-68
2023/05/16 19:13:48;;;;;;;;;;;;;;;;;;5152844;27;19911;-69
2023/05/16 19:18:45;;;;;;;;;;;;;;;;;;5091536;27;20287;-68
2023/05/16 19:23:45;;;;;;;;;;;;;;;;;;5111711;27;19916;-68
2023/05/16 19:26:11;;;;;;;;;;;;;;;;;;5111679;28;19957;-69
2023/05/16 19:28:39;;;;;;;;;;;;;;;;;;5110608;28;19911;-69
2023/05/16 19:31:06;;;;;;;;;;;;;;;;;;5109284;28;20390;-69
2023/05/16 19:33:31;;;;;;;;;;;;;;;;;;5110537;28;20391;-69
2023/05/16 19:35:57;;;;;;;;;;;;;;;;;;5110271;28;19908;-69
2023/05/16 19:38:24;;;;;;;;;;;;;;;;;;5108095;28;19908;-69
2023/05/16 19:43:20;;;;;;;;;;;;;;;;;;5111696;27;19912;-69
2023/05/16 19:45:45;;;;;;;;;;;;;;;;;;5111292;28;20018;-68
2023/05/16 19:48:12;;;;;;;;;;;;;;;;;;5110380;28;19915;-68
2023/05/16 19:50:38;;;;;;;;;;;;;;;;;;5111635;28;19978;-69
2023/05/16 19:53:04;;;;;;;;;;;;;;;;;;5111176;28;19908;-68
2023/05/16 19:55:30;;;;;;;;;;;;;;;;;;5111613;28;19955;-68
2023/05/16 19:58:34;;;;;;;;;;;;;;;;;;5070873;28;19916;-69
2023/05/16 20:01:00;;;;;;;;;;;;;;;;;;5071167;28;20353;-69
2023/05/16 20:03:26;;;;;;;;;;;;;;;;;;5071048;28;19959;-69
2023/05/16 20:07:39;;;;;;;;;;;;;;;;;;5090931;27;20292;-68
2023/05/16 20:16:19;;;;;;;;;;;;;;;;;;5071897;28;19917;-69
2023/05/16 20:18:45;;;;;;;;;;;;;;;;;;5071068;28;19920;-68
2023/05/16 20:21:46;;;;;;;;;;;;;;;;;;5173363;27;19911;-68
2023/05/16 20:24:13;;;;;;;;;;;;;;;;;;5173893;27;19917;-68
2023/05/16 20:29:11;;;;;;;;;;;;;;;;;;5059438;27;2079889;-67
2023/05/16 20:34:01;;;;;;;;;;;;;;;;;;5111844;27;19927;-68
2023/05/16 20:39:35;;;;;;;;;;;;;;;;;;5112296;27;19916;-68
2023/05/16 20:42:01;;;;;;;;;;;;;;;;;;5111259;28;19912;-68
2023/05/16 20:47:18;;;;;;;;;;;;;;;;;;5091467;27;19923;-68
2023/05/16 20:49:44;;;;;;;;;;;;;;;;;;5090986;28;20007;-68
2023/05/16 20:52:10;;;;;;;;;;;;;;;;;;5091443;28;19908;-68
2023/05/16 20:54:36;;;;;;;;;;;;;;;;;;5091239;28;20371;-68
2023/05/16 20:59:21;;;;;;;;;;;;;;;;;;5091332;27;20299;-68
2023/05/16 21:01:47;;;;;;;;;;;;;;;;;;5091399;28;20007;-68
2023/05/16 21:05:28;;;;;;;;;;;;;;;;;;5174340;27;19910;-69
2023/05/16 21:07:54;;;;;;;;;;;;;;;;;;5173740;27;19922;-68
2023/05/16 21:13:15;;;;;;;;;;;;;;;;;;5091771;27;20396;-67
2023/05/16 21:15:55;;;;;;;;;;;;;;;;;;5111658;27;19999;-68
2023/05/16 21:18:21;;;;;;;;;;;;;;;;;;5111751;28;19951;-68
2023/05/16 21:23:07;;;;;;;;;;;;;;;;;;5091194;27;19922;-68
2023/05/16 21:25:34;;;;;;;;;;;;;;;;;;5091288;28;19965;-68
2023/05/16 21:31:05;;;;;;;;;;;;;;;;;;5111696;27;19916;-67
2023/05/16 21:33:31;;;;;;;;;;;;;;;;;;5110510;28;19999;-67
2023/05/16 21:35:59;;;;;;;;;;;;;;;;;;5112104;28;20343;-68
2023/05/16 21:38:25;;;;;;;;;;;;;;;;;;5111244;28;20394;-67
2023/05/16 21:40:51;;;;;;;;;;;;;;;;;;5111572;28;19908;-67
2023/05/16 21:43:16;;;;;;;;;;;;;;;;;;5111690;28;19962;-67
2023/05/16 21:45:42;;;;;;;;;;;;;;;;;;5111099;28;19915;-67
2023/05/16 21:49:37;;;;;;;;;;;;;;;;;;5092169;27;19916;-68
2023/05/16 21:52:03;;;;;;;;;;;;;;;;;;5091133;28;20015;-68
2023/05/16 21:54:29;;;;;;;;;;;;;;;;;;5091324;28;19962;-68
2023/05/16 21:58:09;;;;;;;;;;;;;;;;;;5091153;27;19922;-67
2023/05/16 22:00:35;;;;;;;;;;;;;;;;;;5091383;28;19951;-67
2023/05/16 22:03:01;;;;;;;;;;;;;;;;;;5091273;28;19977;-67
2023/05/16 22:05:27;;;;;;;;;;;;;;;;;;5090883;28;19909;-67
2023/05/16 22:08:56;;;;;;;;;;;;;;;;;;5112294;27;19916;-67
2023/05/16 22:11:22;;;;;;;;;;;;;;;;;;5111665;28;20364;-67
2023/05/16 22:17:31;;;;;;;;;;;;;;;;;;5111824;27;19912;-68
2023/05/16 22:19:57;;;;;;;;;;;;;;;;;;5111301;28;20006;-68
2023/05/16 22:22:37;;;;;;;;;;;;;;;;;;5112175;27;19916;-68
2023/05/16 22:25:03;;;;;;;;;;;;;;;;;;5111903;28;20007;-67
2023/05/16 22:27:29;;;;;;;;;;;;;;;;;;5111225;28;19953;-67
2023/05/16 22:31:03;;;;;;;;;;;;;;;;;;5071709;28;19917;-68
2023/05/16 22:33:29;;;;;;;;;;;;;;;;;;5071227;28;19980;-68
2023/05/16 22:38:54;;;;;;;;;;;;;;;;;;5111913;27;19922;-67
2023/05/16 22:43:14;;;;;;;;;;;;;;;;;;5112281;27;19922;-68